Algoma Harvester — XJBK — position and weather

sailwx.info

Track history (hours):
 
Tides and Currents Weather Stations Pressure Air Temp Water Temp Dewpoint Dewpoint Depression Visibility Wind Speed Wind Dir Waves Ship Positions

Algoma Harvester

Last reported at 2017-Dec-26 18:49 UTC. Time now 2018-Jan-21 20:42 UTC.
Position N 45°32' W 073°32'.
Warning: this ship's position is 26 days out of date.

Length 226 m; draft 8.1 m.

Type: Cargo ship. MMSI: 316011710.

Date/timePositionNaut miles runAvg speedWind from/ knotsBaromVisibWave heightAir tempDewpointWater temp
2017-Dec-26 18:49N 45°32' W 073°32'2 2.1
2017-Dec-26 17:41N 45°30' W 073°31'0 0.9
2017-Dec-26 17:30N 45°29' W 073°31'1 1.1
2017-Dec-26 17:00N 45°29' W 073°31'0 0.4
2017-Dec-26 15:44N 45°28' W 073°30'0 0.9
2017-Dec-26 15:13N 45°28' W 073°30'1 3.7
2017-Dec-26 15:00N 45°27' W 073°30'2 4.7
2017-Dec-26 14:30N 45°25' W 073°31'2 3.8
2017-Dec-26 14:00N 45°24' W 073°33'0 0.9
2017-Dec-26 13:30N 45°24' W 073°34'0 0.4
2017-Dec-26 13:00N 45°24' W 073°34'0 0.0
2017-Dec-26 12:29N 45°24' W 073°34'0 0.0
2017-Dec-26 11:59N 45°24' W 073°34'0 0.5
2017-Dec-26 11:30N 45°24' W 073°35'1 1.3
2017-Dec-26 11:00N 45°24' W 073°36'2 3.7
2017-Dec-26 10:30N 45°24' W 073°38'2 4.2
2017-Dec-26 10:00N 45°25' W 073°41'3 5.4
2017-Dec-26 09:30N 45°24' W 073°45'5 9.6
2017-Dec-26 09:00N 45°22' W 073°50'4 8.4
2017-Dec-26 08:30N 45°19' W 073°55'0 0.4
2017-Dec-26 08:00N 45°19' W 073°55'0 0.7
2017-Dec-26 07:30N 45°19' W 073°55'0 0.9
2017-Dec-26 07:00N 45°18' W 073°56'0 0.2
2017-Dec-26 06:30N 45°18' W 073°56'1 1.1
2017-Dec-26 06:00N 45°18' W 073°56'3 6.2
2017-Dec-26 05:30N 45°15' W 073°58'610.1
2017-Dec-26 04:57N 45°13' W 074°06'510.5
2017-Dec-26 04:30N 45°14' W 074°13'  
2017-Dec-21 19:25N 45°14' W 074°13'4 9.2
2017-Dec-21 19:00N 45°14' W 074°08'4 7.3
2017-Dec-21 18:30N 45°13' W 074°03'4 8.4
2017-Dec-21 18:01N 45°15' W 073°58'3 6.3
2017-Dec-21 17:31N 45°18' W 073°56'0 0.0
2017-Dec-21 17:01N 45°18' W 073°56'1 1.6
2017-Dec-21 16:30N 45°19' W 073°55'0 0.1
2017-Dec-21 16:01N 45°19' W 073°55'0 0.0
2017-Dec-21 15:31N 45°19' W 073°55'0 0.9
2017-Dec-21 15:00N 45°19' W 073°55'0 0.0
2017-Dec-21 14:30N 45°19' W 073°55'0 0.0
2017-Dec-21 14:00N 45°19' W 073°55'2 4.7
2017-Dec-21 13:30N 45°21' W 073°52'611.3
2017-Dec-21 13:00N 45°24' W 073°46'4 7.8
2017-Dec-21 12:30N 45°25' W 073°40'3 5.6
2017-Dec-21 11:58N 45°24' W 073°36'2 3.1
2017-Dec-21 11:29N 45°24' W 073°34'0 0.5
2017-Dec-21 10:58N 45°24' W 073°34'1 1.5
2017-Dec-21 10:30N 45°24' W 073°33'1 2.7
2017-Dec-21 09:59N 45°25' W 073°31'2 4.3
2017-Dec-21 09:30N 45°27' W 073°30'3 5.1
2017-Dec-21 09:00N 45°30' W 073°31'0 0.3
2017-Dec-21 08:20N 45°30' W 073°31'1 1.2
2017-Dec-21 07:20N 45°31' W 073°31'  
2017-Dec-18 00:54N 45°31' W 073°32'2 2.0
2017-Dec-18 00:04N 45°30' W 073°31'0 0.9
2017-Dec-17 23:58N 45°29' W 073°31'0 0.5
2017-Dec-17 23:28N 45°29' W 073°31'0 0.0
2017-Dec-17 22:59N 45°29' W 073°31'0 0.0
2017-Dec-17 22:29N 45°29' W 073°31'0 0.0
2017-Dec-17 22:00N 45°29' W 073°31'0 0.0
2017-Dec-17 21:30N 45°29' W 073°31'1 2.9
2017-Dec-17 20:59N 45°28' W 073°30'2 5.0
2017-Dec-17 20:30N 45°25' W 073°30'3 5.2
2017-Dec-17 20:00N 45°24' W 073°34'0 0.5
2017-Dec-17 19:27N 45°24' W 073°34'1 1.2
2017-Dec-17 19:01N 45°24' W 073°35'1 1.7
2017-Dec-17 18:23N 45°24' W 073°36'0 0.0
2017-Dec-17 18:00N 45°24' W 073°36'0 0.0
2017-Dec-17 17:30N 45°24' W 073°36'0 0.0
2017-Dec-17 17:00N 45°24' W 073°36'1 1.0
2017-Dec-17 16:28N 45°24' W 073°37'3 5.5
2017-Dec-17 16:00N 45°25' W 073°40'3 6.8
2017-Dec-17 15:30N 45°24' W 073°45'611.8
2017-Dec-17 15:00N 45°21' W 073°52'1 2.9
2017-Dec-17 14:30N 45°20' W 073°54'0 0.0
2017-Dec-17 14:00N 45°20' W 073°54'0 0.0
2017-Dec-17 13:30N 45°20' W 073°54'0 0.0
2017-Dec-17 13:00N 45°20' W 073°54'0 0.0
2017-Dec-17 12:30N 45°20' W 073°54'0 0.0
2017-Dec-17 12:00N 45°20' W 073°54'0 0.0
2017-Dec-17 11:30N 45°20' W 073°54'0 0.1
2017-Dec-17 11:00N 45°20' W 073°54'1 1.4
2017-Dec-17 10:31N 45°20' W 073°54'1 1.8
2017-Dec-17 10:00N 45°19' W 073°55'1 1.4
2017-Dec-17 09:30N 45°18' W 073°56'0 0.3
2017-Dec-17 09:00N 45°18' W 073°56'0 0.0
2017-Dec-17 08:30N 45°18' W 073°56'0 0.0
2017-Dec-17 08:01N 45°18' W 073°56'0 0.1
2017-Dec-17 07:30N 45°18' W 073°56'1 2.8
2017-Dec-17 07:01N 45°17' W 073°57'4 8.4
2017-Dec-17 06:30N 45°14' W 074°01'4 7.9
2017-Dec-17 05:58N 45°13' W 074°07'4 8.5
2017-Dec-17 05:30N 45°14' W 074°12'  
Track history (hours):
 
Tides and Currents Weather Stations Pressure Air Temp Water Temp Dewpoint Dewpoint Depression Visibility Wind Speed Wind Dir Waves Ship Positions

Algoma Harvester

Last reported at 2017-Dec-26 18:49 UTC. Time now 2018-Jan-21 20:42 UTC.
Position N 45°32' W 073°32'.
Warning: this ship's position is 26 days out of date.

Length 226 m; draft 8.1 m.

Type: Cargo ship. MMSI: 316011710.

Date/timePositionNaut miles runAvg speedWind from/ knotsBaromVisibWave heightAir tempDewpointWater temp
2017-Dec-26 18:49N 45°32' W 073°32'2 2.1
2017-Dec-26 17:41N 45°30' W 073°31'0 0.9
2017-Dec-26 17:30N 45°29' W 073°31'1 1.1
2017-Dec-26 17:00N 45°29' W 073°31'0 0.4
2017-Dec-26 15:44N 45°28' W 073°30'0 0.9
2017-Dec-26 15:13N 45°28' W 073°30'1 3.7
2017-Dec-26 15:00N 45°27' W 073°30'2 4.7
2017-Dec-26 14:30N 45°25' W 073°31'2 3.8
2017-Dec-26 14:00N 45°24' W 073°33'0 0.9
2017-Dec-26 13:30N 45°24' W 073°34'0 0.4
2017-Dec-26 13:00N 45°24' W 073°34'0 0.0
2017-Dec-26 12:29N 45°24' W 073°34'0 0.0
2017-Dec-26 11:59N 45°24' W 073°34'0 0.5
2017-Dec-26 11:30N 45°24' W 073°35'1 1.3
2017-Dec-26 11:00N 45°24' W 073°36'2 3.7
2017-Dec-26 10:30N 45°24' W 073°38'2 4.2
2017-Dec-26 10:00N 45°25' W 073°41'3 5.4
2017-Dec-26 09:30N 45°24' W 073°45'5 9.6
2017-Dec-26 09:00N 45°22' W 073°50'4 8.4
2017-Dec-26 08:30N 45°19' W 073°55'0 0.4
2017-Dec-26 08:00N 45°19' W 073°55'0 0.7
2017-Dec-26 07:30N 45°19' W 073°55'0 0.9
2017-Dec-26 07:00N 45°18' W 073°56'0 0.2
2017-Dec-26 06:30N 45°18' W 073°56'1 1.1
2017-Dec-26 06:00N 45°18' W 073°56'3 6.2
2017-Dec-26 05:30N 45°15' W 073°58'610.1
2017-Dec-26 04:57N 45°13' W 074°06'510.5
2017-Dec-26 04:30N 45°14' W 074°13'  
2017-Dec-21 19:25N 45°14' W 074°13'4 9.2
2017-Dec-21 19:00N 45°14' W 074°08'4 7.3
2017-Dec-21 18:30N 45°13' W 074°03'4 8.4
2017-Dec-21 18:01N 45°15' W 073°58'3 6.3
2017-Dec-21 17:31N 45°18' W 073°56'0 0.0
2017-Dec-21 17:01N 45°18' W 073°56'1 1.6
2017-Dec-21 16:30N 45°19' W 073°55'0 0.1
2017-Dec-21 16:01N 45°19' W 073°55'0 0.0
2017-Dec-21 15:31N 45°19' W 073°55'0 0.9
2017-Dec-21 15:00N 45°19' W 073°55'0 0.0
2017-Dec-21 14:30N 45°19' W 073°55'0 0.0
2017-Dec-21 14:00N 45°19' W 073°55'2 4.7
2017-Dec-21 13:30N 45°21' W 073°52'611.3
2017-Dec-21 13:00N 45°24' W 073°46'4 7.8
2017-Dec-21 12:30N 45°25' W 073°40'3 5.6
2017-Dec-21 11:58N 45°24' W 073°36'2 3.1
2017-Dec-21 11:29N 45°24' W 073°34'0 0.5
2017-Dec-21 10:58N 45°24' W 073°34'1 1.5
2017-Dec-21 10:30N 45°24' W 073°33'1 2.7
2017-Dec-21 09:59N 45°25' W 073°31'2 4.3
2017-Dec-21 09:30N 45°27' W 073°30'3 5.1
2017-Dec-21 09:00N 45°30' W 073°31'0 0.3
2017-Dec-21 08:20N 45°30' W 073°31'1 1.2
2017-Dec-21 07:20N 45°31' W 073°31'  
2017-Dec-18 00:54N 45°31' W 073°32'2 2.0
2017-Dec-18 00:04N 45°30' W 073°31'0 0.9
2017-Dec-17 23:58N 45°29' W 073°31'0 0.5
2017-Dec-17 23:28N 45°29' W 073°31'0 0.0
2017-Dec-17 22:59N 45°29' W 073°31'0 0.0
2017-Dec-17 22:29N 45°29' W 073°31'0 0.0
2017-Dec-17 22:00N 45°29' W 073°31'0 0.0
2017-Dec-17 21:30N 45°29' W 073°31'1 2.9
2017-Dec-17 20:59N 45°28' W 073°30'2 5.0
2017-Dec-17 20:30N 45°25' W 073°30'3 5.2
2017-Dec-17 20:00N 45°24' W 073°34'0 0.5
2017-Dec-17 19:27N 45°24' W 073°34'1 1.2
2017-Dec-17 19:01N 45°24' W 073°35'1 1.7
2017-Dec-17 18:23N 45°24' W 073°36'0 0.0
2017-Dec-17 18:00N 45°24' W 073°36'0 0.0
2017-Dec-17 17:30N 45°24' W 073°36'0 0.0
2017-Dec-17 17:00N 45°24' W 073°36'1 1.0
2017-Dec-17 16:28N 45°24' W 073°37'3 5.5
2017-Dec-17 16:00N 45°25' W 073°40'3 6.8
2017-Dec-17 15:30N 45°24' W 073°45'611.8
2017-Dec-17 15:00N 45°21' W 073°52'1 2.9
2017-Dec-17 14:30N 45°20' W 073°54'0 0.0
2017-Dec-17 14:00N 45°20' W 073°54'0 0.0
2017-Dec-17 13:30N 45°20' W 073°54'0 0.0
2017-Dec-17 13:00N 45°20' W 073°54'0 0.0
2017-Dec-17 12:30N 45°20' W 073°54'0 0.0
2017-Dec-17 12:00N 45°20' W 073°54'0 0.0
2017-Dec-17 11:30N 45°20' W 073°54'0 0.1
2017-Dec-17 11:00N 45°20' W 073°54'1 1.4
2017-Dec-17 10:31N 45°20' W 073°54'1 1.8
2017-Dec-17 10:00N 45°19' W 073°55'1 1.4
2017-Dec-17 09:30N 45°18' W 073°56'0 0.3
2017-Dec-17 09:00N 45°18' W 073°56'0 0.0
2017-Dec-17 08:30N 45°18' W 073°56'0 0.0
2017-Dec-17 08:01N 45°18' W 073°56'0 0.1
2017-Dec-17 07:30N 45°18' W 073°56'1 2.8
2017-Dec-17 07:01N 45°17' W 073°57'4 8.4
2017-Dec-17 06:30N 45°14' W 074°01'4 7.9
2017-Dec-17 05:58N 45°13' W 074°07'4 8.5
2017-Dec-17 05:30N 45°14' W 074°12'  

Dump ship's entire track history